createdAt,value
2023-04-07T00:00:46.758Z,87.32
2023-04-07T00:05:48.371Z,87.44
2023-04-07T00:10:49.934Z,87.20
2023-04-07T00:15:51.668Z,87.21
2023-04-07T00:20:53.162Z,86.88
2023-04-07T00:25:54.636Z,87.09
2023-04-07T00:30:56.135Z,87.41
2023-04-07T00:35:58.747Z,87.80
2023-04-07T00:41:00.840Z,87.48
2023-04-07T00:46:03.068Z,87.32
2023-04-07T00:51:06.853Z,87.51
2023-04-07T00:56:08.359Z,87.31
2023-04-07T01:01:20.251Z,87.19
2023-04-07T01:06:26.879Z,87.62
2023-04-07T01:11:31.292Z,87.86
2023-04-07T01:16:39.653Z,87.27
2023-04-07T01:21:45.193Z,87.29
2023-04-07T01:26:47.700Z,87.28
2023-04-07T01:31:50.621Z,87.42
2023-04-07T01:36:54.498Z,87.53
2023-04-07T01:41:58.117Z,87.49
2023-04-07T01:47:00.731Z,87.70
2023-04-07T01:52:03.017Z,87.42
2023-04-07T01:57:04.550Z,87.22
2023-04-07T02:02:06.293Z,87.47
2023-04-07T02:07:22.516Z,86.85
2023-04-07T02:12:27.521Z,87.59
2023-04-07T02:17:30.856Z,88.17
2023-04-07T02:22:33.295Z,88.30
2023-04-07T02:27:34.780Z,87.90
2023-04-07T02:32:36.274Z,87.72
2023-04-07T02:37:38.628Z,88.12
2023-04-07T02:42:40.740Z,88.32
2023-04-07T02:47:42.240Z,88.00
2023-04-07T02:52:43.730Z,87.45
2023-04-07T02:57:45.312Z,88.06
2023-04-07T03:02:46.977Z,87.61
2023-04-07T03:07:48.689Z,87.46
2023-04-07T03:12:50.256Z,87.88
2023-04-07T03:17:52.008Z,88.27
2023-04-07T03:22:53.610Z,88.17
2023-04-07T03:27:55.543Z,88.38
2023-04-07T03:32:57.072Z,88.60
2023-04-07T03:37:58.612Z,89.01
2023-04-07T03:43:00.345Z,88.45
2023-04-07T03:48:02.352Z,88.79
2023-04-07T03:53:03.981Z,88.58
2023-04-07T03:58:06.174Z,88.32
2023-04-07T04:03:08.043Z,88.47
2023-04-07T04:08:09.649Z,88.97
2023-04-07T04:13:11.219Z,88.73
2023-04-07T04:18:12.762Z,88.34
2023-04-07T04:23:15.042Z,88.66
2023-04-07T04:28:16.728Z,88.71
2023-04-07T04:33:18.206Z,88.92
2023-04-07T04:38:19.738Z,89.50
2023-04-07T04:43:21.235Z,88.91
2023-04-07T04:48:22.745Z,88.64
2023-04-07T04:53:24.249Z,88.54
2023-04-07T04:58:26.333Z,88.64
2023-04-07T05:03:29.260Z,88.08
2023-04-07T05:08:31.308Z,88.48
2023-04-07T05:13:32.853Z,88.16
2023-04-07T05:18:34.435Z,88.25
2023-04-07T05:23:36.419Z,88.81
2023-04-07T05:28:40.061Z,88.51
2023-04-07T05:33:41.515Z,88.39
2023-04-07T05:38:43.023Z,88.52
2023-04-07T05:43:44.525Z,88.61
2023-04-07T05:48:46.428Z,88.58
2023-04-07T05:53:47.901Z,88.14
2023-04-07T05:58:49.376Z,87.94
2023-04-07T06:03:51.073Z,88.19
2023-04-07T06:08:52.817Z,88.44
2023-04-07T06:13:54.328Z,87.98
2023-04-07T06:18:55.920Z,88.03
2023-04-07T06:23:57.387Z,87.79
2023-04-07T06:28:59.473Z,87.85
2023-04-07T06:34:01.154Z,87.41
2023-04-07T06:39:02.922Z,87.17
2023-04-07T06:44:06.495Z,87.14
2023-04-07T06:49:09.065Z,87.03
2023-04-07T06:54:14.054Z,86.42
2023-04-07T06:59:15.872Z,86.57
2023-04-07T07:04:17.563Z,86.33
2023-04-07T07:09:19.306Z,86.40
2023-04-07T07:14:20.802Z,86.62
2023-04-07T07:19:22.328Z,86.36
2023-04-07T07:24:23.810Z,86.67
2023-04-07T07:29:25.410Z,86.24
2023-04-07T07:34:26.973Z,86.19
2023-04-07T07:39:29.970Z,86.89
2023-04-07T07:44:32.582Z,86.67
2023-04-07T07:49:34.228Z,86.73
2023-04-07T07:54:35.879Z,86.27
2023-04-07T07:59:37.371Z,86.50
2023-04-07T08:04:39.105Z,86.17
2023-04-07T08:09:40.688Z,86.27
2023-04-07T08:14:42.174Z,86.27
2023-04-07T08:19:43.683Z,86.41
2023-04-07T08:24:45.438Z,85.93
2023-04-07T08:29:58.216Z,85.28
2023-04-07T08:34:59.896Z,84.82
2023-04-07T08:40:02.984Z,84.07
2023-04-07T08:45:06.721Z,83.45
2023-04-07T08:50:10.539Z,83.40
2023-04-07T08:55:12.255Z,83.42
2023-04-07T09:00:14.738Z,83.36
2023-04-07T09:05:16.350Z,83.43
2023-04-07T09:10:18.152Z,83.22
2023-04-07T09:15:20.858Z,83.51
2023-04-07T09:20:22.423Z,83.54
2023-04-07T09:25:27.237Z,83.84
2023-04-07T09:30:31.378Z,84.15
2023-04-07T09:35:51.002Z,84.15
2023-04-07T09:41:06.282Z,84.45
2023-04-07T09:46:12.604Z,84.63
2023-04-07T09:51:18.418Z,84.46
2023-04-07T09:56:24.220Z,84.23
2023-04-07T10:01:25.878Z,84.04
2023-04-07T10:06:27.667Z,83.95
2023-04-07T10:11:29.485Z,83.78
2023-04-07T10:16:31.765Z,83.50
2023-04-07T10:21:37.865Z,83.20
2023-04-07T10:26:41.826Z,83.23
2023-04-07T10:31:44.706Z,82.95
2023-04-07T10:37:09.710Z,83.24
2023-04-07T10:42:49.350Z,83.16
2023-04-07T10:48:03.104Z,83.46
2023-04-07T10:53:07.280Z,83.42
2023-04-07T10:58:29.014Z,83.54
2023-04-07T11:03:57.070Z,83.84
2023-04-07T11:08:58.867Z,83.58
2023-04-07T11:14:00.573Z,83.78
2023-04-07T11:19:02.071Z,83.57
2023-04-07T11:24:05.770Z,83.73
2023-04-07T11:29:08.106Z,83.47
2023-04-07T11:34:09.745Z,83.33
2023-04-07T11:39:22.135Z,83.11
2023-04-07T11:44:26.227Z,83.03
2023-04-07T11:49:28.668Z,83.28
2023-04-07T11:54:41.453Z,83.43
2023-04-07T11:59:42.982Z,82.87
2023-04-07T12:04:57.457Z,81.80
2023-04-07T12:10:17.896Z,81.30
2023-04-07T12:15:20.599Z,81.74
2023-04-07T12:20:22.139Z,81.55
2023-04-07T12:25:23.788Z,81.02
2023-04-07T12:30:28.777Z,80.85
2023-04-07T12:35:30.984Z,80.32
2023-04-07T12:40:32.535Z,79.86
2023-04-07T12:45:34.222Z,79.43
2023-04-07T12:50:37.489Z,79.05
2023-04-07T12:55:38.894Z,77.99
2023-04-07T13:00:42.147Z,77.12
2023-04-07T13:05:43.643Z,76.11
2023-04-07T13:10:45.125Z,74.44
2023-04-07T13:15:46.979Z,74.33
2023-04-07T13:20:58.565Z,73.58
2023-04-07T13:26:10.025Z,74.05
2023-04-07T13:31:15.790Z,73.08
2023-04-07T13:36:17.636Z,73.05
2023-04-07T13:41:19.132Z,73.74
2023-04-07T13:46:28.379Z,73.95
2023-04-07T13:51:30.704Z,74.57
2023-04-07T13:56:32.375Z,75.40
2023-04-07T14:01:35.774Z,76.09
2023-04-07T14:06:38.016Z,76.08
2023-04-07T14:11:39.614Z,76.14
2023-04-07T14:16:41.572Z,75.96
2023-04-07T14:21:43.049Z,76.21
2023-04-07T14:26:45.505Z,75.98
2023-04-07T14:31:51.928Z,75.26
2023-04-07T14:36:55.402Z,75.14
2023-04-07T14:41:56.898Z,74.98
2023-04-07T14:46:58.407Z,74.57
2023-04-07T14:51:59.908Z,74.51
2023-04-07T14:57:01.475Z,73.75
2023-04-07T15:02:03.108Z,73.64
2023-04-07T15:07:05.335Z,73.25
2023-04-07T15:12:06.919Z,72.73
2023-04-07T15:17:08.467Z,72.96
2023-04-07T15:22:10.609Z,73.36
2023-04-07T15:27:12.084Z,73.50
2023-04-07T15:32:13.718Z,72.78
2023-04-07T15:37:17.314Z,72.96
2023-04-07T15:42:18.912Z,72.81
2023-04-07T15:47:20.405Z,72.25
2023-04-07T15:52:21.928Z,71.56
2023-04-07T15:57:23.415Z,71.78
2023-04-07T16:02:25.122Z,71.36
2023-04-07T16:07:27.565Z,70.93
2023-04-07T16:12:29.129Z,71.52
2023-04-07T16:17:30.693Z,70.52
2023-04-07T16:22:32.289Z,70.35
2023-04-07T16:27:33.794Z,70.79
2023-04-07T16:32:35.428Z,70.58
2023-04-07T16:37:37.300Z,70.52
2023-04-07T16:42:39.060Z,71.57
2023-04-07T16:47:44.272Z,71.11
2023-04-07T16:52:47.734Z,71.54
2023-04-07T16:57:50.166Z,71.75
2023-04-07T17:02:51.735Z,72.43
2023-04-07T17:07:53.939Z,72.71
2023-04-07T17:12:56.836Z,72.84
2023-04-07T17:17:58.773Z,73.02
2023-04-07T17:23:00.581Z,73.54
2023-04-07T17:28:02.222Z,73.73
2023-04-07T17:33:04.632Z,73.61
2023-04-07T17:38:06.732Z,73.95
2023-04-07T17:43:08.412Z,74.20
2023-04-07T17:48:12.177Z,73.90
2023-04-07T17:53:14.075Z,74.40
2023-04-07T17:58:15.805Z,74.51
2023-04-07T18:03:17.888Z,74.07
2023-04-07T18:08:19.688Z,74.10
2023-04-07T18:13:21.213Z,74.27
2023-04-07T18:18:22.890Z,74.71
2023-04-07T18:23:24.501Z,75.11
2023-04-07T18:28:26.327Z,75.19
2023-04-07T18:33:32.889Z,75.11
2023-04-07T18:38:36.033Z,75.27
2023-04-07T18:43:37.928Z,75.41
2023-04-07T18:48:41.039Z,75.97
2023-04-07T18:53:42.889Z,75.58
2023-04-07T18:58:46.013Z,75.50
2023-04-07T19:03:48.366Z,75.45
2023-04-07T19:08:51.427Z,75.57
2023-04-07T19:13:53.431Z,75.52
2023-04-07T19:18:55.342Z,75.69
2023-04-07T19:23:59.420Z,75.20
2023-04-07T19:29:03.265Z,75.35
2023-04-07T19:34:04.797Z,75.35
2023-04-07T19:39:06.434Z,75.62
2023-04-07T19:44:08.160Z,75.69
2023-04-07T19:49:10.540Z,75.87
2023-04-07T19:54:12.170Z,75.48
2023-04-07T19:59:13.644Z,74.79
2023-04-07T20:04:15.493Z,74.44
2023-04-07T20:09:17.474Z,74.42
2023-04-07T20:14:19.040Z,74.67
2023-04-07T20:19:21.020Z,73.88
2023-04-07T20:24:22.796Z,73.87
2023-04-07T20:29:24.283Z,73.54
2023-04-07T20:34:25.848Z,74.05
2023-04-07T20:39:27.349Z,74.81
2023-04-07T20:44:29.374Z,74.74
2023-04-07T20:49:30.868Z,74.45
2023-04-07T20:54:33.184Z,74.30
2023-04-07T20:59:34.666Z,74.13
2023-04-07T21:04:37.053Z,73.91
2023-04-07T21:09:38.830Z,74.29
2023-04-07T21:14:40.498Z,73.55
2023-04-07T21:19:42.315Z,73.22
2023-04-07T21:24:43.828Z,73.19
2023-04-07T21:29:45.508Z,73.57
2023-04-07T21:34:47.011Z,73.19
2023-04-07T21:39:48.758Z,72.94
2023-04-07T21:44:50.255Z,73.06
2023-04-07T21:49:51.790Z,72.96
2023-04-07T21:54:53.261Z,73.34
2023-04-07T21:59:54.756Z,73.64
2023-04-07T22:04:56.245Z,72.77
2023-04-07T22:09:58.343Z,72.44
2023-04-07T22:14:59.970Z,72.48
2023-04-07T22:20:01.529Z,72.29
2023-04-07T22:25:03.476Z,72.77
2023-04-07T22:30:09.967Z,72.85
2023-04-07T22:35:11.656Z,72.27
2023-04-07T22:40:13.178Z,72.26
2023-04-07T22:45:14.907Z,72.21
2023-04-07T22:50:16.856Z,72.17
2023-04-07T22:55:19.501Z,72.30
2023-04-07T23:00:29.336Z,72.17
2023-04-07T23:05:31.034Z,72.79
2023-04-07T23:10:32.536Z,71.96
2023-04-07T23:15:35.937Z,71.82
2023-04-07T23:20:37.465Z,72.14
2023-04-07T23:25:38.927Z,71.90
2023-04-07T23:30:40.545Z,72.25
2023-04-07T23:35:42.070Z,72.90
2023-04-07T23:40:43.619Z,72.72
2023-04-07T23:45:45.102Z,72.46
2023-04-07T23:50:49.058Z,72.60
2023-04-07T23:55:50.966Z,72.68
